Time;durP1;ratioP1;P1;durP2;ratioP2;P2;SDS_P1;SDS_P2;PMS_P1;PMS_P2;Temp;Humidity;BMP_temperature;BMP_pressure;BME280_temperature;BME280_humidity;BME280_pressure;Samples;Min_cycle;Max_cycle;Signal;HPM_P1;HPM_P2
2022/01/14 00:02:08;;;;;;;38.77;18.27;;;;;;;-2.87;100.00;100660.32;1717921;82;21021;-75
2022/01/14 00:04:36;;;;;;;44.80;21.00;;;;;;;-2.87;100.00;100654.86;1715972;83;21022;-76
2022/01/14 00:07:04;;;;;;;44.77;21.37;;;;;;;-2.84;100.00;100641.45;1714875;83;21066;-75
2022/01/14 00:09:33;;;;;;;44.83;20.77;;;;;;;-2.81;100.00;100627.65;1716570;83;21046;-74
2022/01/14 00:12:03;;;;;;;41.77;19.83;;;;;;;-2.80;100.00;100615.47;1713990;83;21027;-73
2022/01/14 00:14:56;;;;;;;44.47;20.23;;;;;;;-2.73;100.00;100604.66;1713251;83;21058;-75
2022/01/14 00:17:15;;;;;;;38.67;18.53;;;;;;;-2.74;100.00;100611.77;1671886;84;21082;-75
2022/01/14 00:19:43;;;;;;;40.27;19.00;;;;;;;-2.72;100.00;100606.33;1723136;80;20988;-75
2022/01/14 00:22:15;;;;;;;41.90;19.57;;;;;;;-2.71;100.00;100608.46;1719598;82;21052;-77
2022/01/14 00:35:33;;;;;;;39.70;19.70;;;;;;;-2.56;100.00;100580.05;1731646;82;21078;-77
2022/01/14 00:38:00;;;;;;;35.90;18.17;;;;;;;-2.51;100.00;100576.77;1719318;82;21003;-75
2022/01/14 00:40:27;;;;;;;41.40;19.27;;;;;;;-2.50;100.00;100567.52;1719668;82;21021;-77
2022/01/14 00:42:54;;;;;;;41.30;19.80;;;;;;;-2.45;100.00;100568.00;1730075;82;21062;-75
2022/01/14 00:45:21;;;;;;;42.00;20.00;;;;;;;-2.43;100.00;100559.20;1726918;81;21016;-77
2022/01/14 00:47:49;;;;;;;41.63;19.77;;;;;;;-2.44;100.00;100552.45;1715419;82;21061;-76
2022/01/14 00:50:18;;;;;;;40.70;19.97;;;;;;;-2.42;100.00;100547.84;1696998;82;21499;-74
2022/01/14 00:52:45;;;;;;;42.27;20.40;;;;;;;-2.43;100.00;100541.13;1711668;82;21027;-77
2022/01/14 00:55:17;;;;;;;39.93;19.80;;;;;;;-2.41;100.00;100538.63;1726129;82;21094;-76
2022/01/14 01:00:34;;;;;;;42.20;18.53;;;;;;;-2.40;100.00;100529.39;1718836;82;21004;-78
2022/01/14 01:03:03;;;;;;;44.53;21.60;;;;;;;-2.40;100.00;100529.39;1731723;81;21110;-77
2022/01/14 01:05:31;;;;;;;47.80;21.50;;;;;;;-2.39;100.00;100532.32;1724364;82;21063;-76
2022/01/14 01:10:25;;;;;;;38.33;18.67;;;;;;;-2.36;100.00;100544.55;1716555;82;21038;-77
2022/01/14 01:13:03;;;;;;;42.67;19.97;;;;;;;-2.34;100.00;100529.02;1723555;82;21530;-76
2022/01/14 01:15:23;;;;;;;42.27;20.13;;;;;;;-2.32;100.00;100533.66;1692158;83;21121;-76
2022/01/14 01:17:51;;;;;;;37.40;19.37;;;;;;;-2.26;100.00;100531.19;1724772;82;21153;-79
2022/01/14 01:20:18;;;;;;;42.37;19.63;;;;;;;-2.26;100.00;100528.67;1739051;82;21024;-77
2022/01/14 01:22:48;;;;;;;42.00;19.92;;;;;;;-2.23;100.00;100516.10;1707275;81;21051;-77
2022/01/14 01:25:21;;;;;;;38.90;19.27;;;;;;;-2.20;100.00;100514.44;1738479;81;21058;-77
2022/01/14 01:27:48;;;;;;;41.23;19.63;;;;;;;-2.19;100.00;100516.11;1730926;81;21012;-75
2022/01/14 01:30:27;;;;;;;40.03;19.53;;;;;;;-2.12;100.00;100512.82;1707973;83;21023;-76
2022/01/14 01:32:47;;;;;;;34.53;17.67;;;;;;;-2.12;100.00;100510.30;1709841;83;21035;-75
2022/01/14 01:35:16;;;;;;;42.17;20.10;;;;;;;-2.10;100.00;100499.38;1675288;85;21095;-78
2022/01/14 01:37:43;;;;;;;41.50;19.97;;;;;;;-2.06;100.00;100491.43;1678426;84;21584;-77
2022/01/14 01:40:14;;;;;;;44.80;21.10;;;;;;;-2.00;100.00;100488.95;1679477;85;21081;-74
2022/01/14 01:42:44;;;;;;;37.93;19.07;;;;;;;-1.98;100.00;100478.45;1679800;85;21017;-77
2022/01/14 01:45:15;;;;;;;40.83;19.93;;;;;;;-1.97;100.00;100470.45;1679674;84;21076;-76
2022/01/14 01:47:44;;;;;;;41.53;19.50;;;;;;;-1.91;100.00;100465.03;1679729;85;21032;-76
2022/01/14 01:50:15;;;;;;;44.13;21.17;;;;;;;-1.87;100.00;100457.06;1679790;85;21064;-77
2022/01/14 01:52:43;;;;;;;46.85;22.35;;;;;;;-1.87;100.00;100452.02;1679770;85;21048;-77
2022/01/14 01:55:13;;;;;;;46.18;20.00;;;;;;;-1.81;100.00;100440.27;1679361;85;21056;-77
2022/01/14 01:57:42;;;;;;;43.92;20.55;;;;;;;-1.78;100.00;100447.44;1679620;85;21056;-80
2022/01/14 02:00:12;;;;;;;42.30;19.82;;;;;;;-1.75;100.00;100442.42;1679847;83;21484;-76
2022/01/14 02:02:48;;;;;;;40.23;19.73;;;;;;;-1.70;100.00;100440.78;1669785;85;21088;-76
2022/01/14 02:05:16;;;;;;;42.70;19.67;;;;;;;-1.70;100.00;100448.34;1664942;85;21108;-77
2022/01/14 02:07:45;;;;;;;45.28;20.97;;;;;;;-1.70;100.00;100447.09;1672541;85;21044;-79
2022/01/14 02:10:12;;;;;;;41.90;19.27;;;;;;;-1.68;100.00;100435.31;1679606;85;21079;-78
2022/01/14 02:12:49;;;;;;;45.45;21.23;;;;;;;-1.69;100.00;100424.36;1679519;85;21067;-78
2022/01/14 02:15:13;;;;;;;44.03;20.57;;;;;;;-1.68;100.00;100417.66;1670775;83;21087;-76
2022/01/14 02:18:03;;;;;;;43.45;20.60;;;;;;;-1.66;100.00;100413.45;1679387;83;21040;-78
2022/01/14 02:23:03;;;;;;;44.50;19.90;;;;;;;-1.63;100.00;100404.62;1665603;85;21037;-77
2022/01/14 02:25:30;;;;;;;44.42;21.05;;;;;;;-1.64;100.00;100391.16;1714890;82;21550;-77
2022/01/14 02:28:06;;;;;;;40.78;20.52;;;;;;;-1.62;100.00;100392.02;1714417;82;21518;-77
2022/01/14 02:30:38;;;;;;;43.55;21.07;;;;;;;-1.54;100.00;100378.56;1736729;82;21539;-78
2022/01/14 02:33:06;;;;;;;42.93;20.50;;;;;;;-1.55;100.00;100378.98;1727066;82;21047;-76
2022/01/14 02:35:34;;;;;;;44.95;20.90;;;;;;;-1.52;100.00;100376.88;1727032;82;21083;-78
2022/01/14 02:38:02;;;;;;;44.00;20.80;;;;;;;-1.51;100.00;100371.01;1736104;82;21114;-78
2022/01/14 02:40:30;;;;;;;41.90;19.95;;;;;;;-1.48;100.00;100363.42;1721187;82;21515;-75
2022/01/14 02:43:00;;;;;;;42.83;19.57;;;;;;;-1.45;100.00;100356.71;1728544;82;21075;-76
2022/01/14 02:45:33;;;;;;;44.83;20.37;;;;;;;-1.43;100.00;100352.51;1733223;82;21101;-77
2022/01/14 02:48:01;;;;;;;48.42;21.60;;;;;;;-1.42;100.00;100344.11;1723222;82;21023;-75
2022/01/14 02:50:37;;;;;;;45.17;21.20;;;;;;;-1.39;100.00;100334.86;1706335;83;21081;-79
2022/01/14 02:53:01;;;;;;;45.08;21.50;;;;;;;-1.41;100.00;100329.37;1668116;85;21048;-75
2022/01/14 02:55:32;;;;;;;39.35;19.73;;;;;;;-1.37;100.00;100319.29;1670952;83;21542;-77
2022/01/14 02:58:00;;;;;;;48.52;22.07;;;;;;;-1.39;100.00;100310.88;1707827;83;21060;-75
2022/01/14 03:00:31;;;;;;;48.70;22.73;;;;;;;-1.38;100.00;100303.70;1670249;85;21020;-76
2022/01/14 03:03:00;;;;;;;43.20;19.25;;;;;;;-1.35;100.00;100294.89;1668975;85;21084;-76
2022/01/14 03:05:30;;;;;;;45.20;21.15;;;;;;;-1.33;100.00;100295.73;1679052;83;21040;-78
2022/01/14 03:07:57;;;;;;;43.87;19.55;;;;;;;-1.36;100.00;100283.09;1652859;84;21638;-75
2022/01/14 03:10:24;;;;;;;48.48;20.82;;;;;;;-1.32;100.00;100275.94;1661964;85;21056;-75
2022/01/14 03:12:52;;;;;;;42.70;19.85;;;;;;;-1.31;100.00;100272.16;1726052;81;21079;-75
2022/01/14 03:15:19;;;;;;;45.33;20.50;;;;;;;-1.31;100.00;100258.70;1699884;82;20991;-75
2022/01/14 03:17:46;;;;;;;45.65;20.05;;;;;;;-1.30;100.00;100260.36;1736181;82;21027;-75
2022/01/14 03:20:43;;;;;;;42.83;20.70;;;;;;;-1.26;100.00;100254.47;1741571;81;20992;-76
2022/01/14 03:22:52;;;;;;;41.15;19.25;;;;;;;-1.21;100.00;100252.38;1732179;81;21518;-76
2022/01/14 03:27:57;;;;;;;42.73;20.05;;;;;;;-1.19;100.00;100247.77;1717805;82;21082;-76
2022/01/14 03:30:24;;;;;;;44.75;20.57;;;;;;;-1.18;100.00;100241.85;1711007;83;21020;-75
2022/01/14 03:32:51;;;;;;;42.83;20.25;;;;;;;-1.13;100.00;100238.48;1707267;83;21047;-76
2022/01/14 03:35:18;;;;;;;43.90;20.50;;;;;;;-1.15;100.00;100233.86;1712281;83;21472;-77
2022/01/14 03:37:45;;;;;;;43.55;20.88;;;;;;;-1.10;100.00;100225.84;1647555;85;21133;-76
2022/01/14 03:40:13;;;;;;;41.33;20.45;;;;;;;-1.06;100.00;100217.84;1718909;82;21054;-75
2022/01/14 03:42:39;;;;;;;36.28;18.00;;;;;;;-1.03;100.00;100221.64;1718426;82;21023;-76
2022/01/14 03:45:08;;;;;;;42.83;20.55;;;;;;;-1.05;100.00;100210.27;1693267;82;21052;-75
2022/01/14 03:47:34;;;;;;;40.70;19.75;;;;;;;-1.04;100.00;100210.67;1691832;82;21586;-77
2022/01/14 03:50:01;;;;;;;40.15;19.60;;;;;;;-0.98;100.00;100207.30;1676609;84;21013;-73
2022/01/14 03:52:30;;;;;;;41.58;20.70;;;;;;;-0.96;100.00;100203.52;1673428;84;21061;-75
2022/01/14 03:54:57;;;;;;;40.28;20.90;;;;;;;-0.93;100.00;100189.20;1665218;85;21536;-76
2022/01/14 03:57:24;;;;;;;40.45;19.60;;;;;;;-0.86;100.00;100192.55;1725760;82;21049;-76
2022/01/14 03:59:51;;;;;;;44.30;20.27;;;;;;;-0.86;100.00;100181.17;1724353;82;21012;-75
2022/01/14 04:02:18;;;;;;;43.08;19.32;;;;;;;-0.81;100.00;100180.75;1718709;82;21038;-75
2022/01/14 04:04:44;;;;;;;39.40;19.05;;;;;;;-0.77;100.00;100167.27;1711349;82;21019;-75
2022/01/14 04:07:12;;;;;;;37.08;18.55;;;;;;;-0.73;100.00;100161.35;1724435;82;21043;-76
2022/01/14 04:09:40;;;;;;;39.83;18.70;;;;;;;-0.73;100.00;100155.03;1709889;83;21082;-75
2022/01/14 04:12:16;;;;;;;41.33;20.00;;;;;;;-0.70;100.00;100140.27;1701525;82;22126;-77
2022/01/14 04:17:12;;;;;;;41.73;18.60;;;;;;;-0.63;100.00;100121.29;1715591;82;21070;-77
2022/01/14 04:19:39;;;;;;;41.15;19.67;;;;;;;-0.61;100.00;100124.65;1689726;82;21115;-76
2022/01/14 04:22:05;;;;;;;36.77;18.15;;;;;;;-0.55;100.00;100114.91;1670727;84;21033;-75
2022/01/14 04:24:32;;;;;;;39.15;18.95;;;;;;;-0.55;100.00;100107.75;1712648;83;21008;-74
2022/01/14 04:26:59;;;;;;;36.50;18.30;;;;;;;-0.52;100.00;100104.80;1713278;83;21542;-74
2022/01/14 04:29:25;;;;;;;37.50;18.57;;;;;;;-0.50;100.00;100099.73;1714248;83;21058;-76
2022/01/14 04:31:52;;;;;;;41.77;19.10;;;;;;;-0.43;100.00;100089.98;1671557;85;21476;-76
2022/01/14 04:34:19;;;;;;;40.80;18.32;;;;;;;-0.45;100.00;100092.95;1705469;83;21053;-76
2022/01/14 04:36:45;;;;;;;43.38;20.15;;;;;;;-0.41;100.00;100083.23;1686798;83;21095;-76
2022/01/14 04:39:13;;;;;;;47.38;21.40;;;;;;;-0.38;100.00;100095.88;1694110;85;21067;-74
2022/01/14 04:41:39;;;;;;;41.25;20.35;;;;;;;-0.38;100.00;100089.55;1694255;85;21067;-77
2022/01/14 04:44:08;;;;;;;39.13;19.45;;;;;;;-0.32;100.00;100093.73;1694464;85;21354;-74
2022/01/14 04:47:12;;;;;;;39.67;19.92;;;;;;;-0.32;100.00;100083.19;1694444;84;21499;-76
2022/01/14 04:49:07;;;;;;;44.10;20.23;;;;;;;-0.27;100.00;100075.56;1709094;83;21079;-76
2022/01/14 04:51:33;;;;;;;42.00;20.77;;;;;;;-0.27;100.00;100075.13;1675707;84;21030;-75
2022/01/14 04:54:02;;;;;;;40.98;19.62;;;;;;;-0.23;100.00;100074.69;1662867;85;21000;-77
2022/01/14 04:56:34;;;;;;;35.13;17.45;;;;;;;-0.19;100.00;100070.02;1662914;83;21040;-78
2022/01/14 04:59:01;;;;;;;40.65;20.25;;;;;;;-0.15;100.00;100074.64;1665270;84;21051;-75
2022/01/14 05:01:29;;;;;;;42.30;20.00;;;;;;;-0.15;100.00;100072.11;1712058;80;20980;-78
2022/01/14 05:03:58;;;;;;;38.70;18.12;;;;;;;-0.12;100.00;100068.28;1703891;82;21479;-77
2022/01/14 05:06:25;;;;;;;35.35;17.42;;;;;;;-0.05;100.00;100064.43;1757770;80;21054;-77
2022/01/14 05:08:52;;;;;;;36.85;17.40;;;;;;;0.00;100.00;100068.22;1715111;82;21028;-76
2022/01/14 05:13:46;;;;;;;38.30;18.45;;;;;;;0.02;100.00;100061.45;1664496;85;21063;-75
2022/01/14 05:16:14;;;;;;;41.95;18.45;;;;;;;0.06;100.00;100063.10;1709239;83;21499;-77
2022/01/14 05:18:41;;;;;;;36.88;17.98;;;;;;;0.09;100.00;100054.20;1753212;80;21057;-75
2022/01/14 05:21:08;;;;;;;39.55;19.67;;;;;;;0.15;100.00;100054.15;1754968;80;20943;-76
2022/01/14 05:23:35;;;;;;;35.70;18.27;;;;;;;0.18;100.00;100050.34;1765001;80;20979;-75
2022/01/14 05:26:01;;;;;;;33.92;17.07;;;;;;;0.21;100.00;100051.16;1743080;81;21066;-76
2022/01/14 05:28:29;;;;;;;34.45;17.85;;;;;;;0.22;100.00;100047.33;1730130;82;21023;-75
2022/01/14 05:30:57;;;;;;;42.62;20.23;;;;;;;0.25;100.00;100045.22;1731296;82;21000;-75
2022/01/14 05:33:26;;;;;;;35.63;18.52;;;;;;;0.39;100.00;100036.63;1704110;82;21083;-77
2022/01/14 05:35:53;;;;;;;32.98;16.73;;;;;;;0.47;100.00;100029.40;1697822;83;21494;-74
2022/01/14 05:38:20;;;;;;;37.33;18.55;;;;;;;0.49;100.00;100015.02;1696158;83;21052;-72
2022/01/14 05:40:47;;;;;;;33.92;17.82;;;;;;;0.51;100.00;100010.78;1711070;83;21067;-76
2022/01/14 05:43:14;;;;;;;36.95;17.60;;;;;;;0.52;100.00;99991.75;1705759;83;21543;-77
2022/01/14 05:45:41;;;;;;;31.80;16.77;;;;;;;0.55;100.00;99985.83;1766927;80;21086;-77
2022/01/14 05:48:08;;;;;;;32.75;16.02;;;;;;;0.56;100.00;99984.52;1768035;80;21129;-76
2022/01/14 05:50:35;;;;;;;38.53;17.25;;;;;;;0.56;100.00;99973.13;1753694;80;21066;-73
2022/01/14 05:53:01;;;;;;;33.20;16.20;;;;;;;0.64;100.00;99972.22;1756349;80;21062;-77
2022/01/14 05:55:29;;;;;;;36.35;17.40;;;;;;;0.60;100.00;99965.90;1770406;80;21003;-78
2022/01/14 05:57:56;;;;;;;32.95;16.57;;;;;;;0.68;100.00;99967.52;1749535;80;21081;-79
2022/01/14 06:00:22;;;;;;;33.85;16.55;;;;;;;0.66;100.00;99967.53;1751546;80;21071;-80
2022/01/14 06:02:51;;;;;;;32.17;16.15;;;;;;;0.72;100.00;99969.16;1761663;80;21059;-81
2022/01/14 06:05:20;;;;;;;32.50;16.00;;;;;;;0.76;100.00;99964.02;1751267;80;21042;-82
2022/01/14 06:07:47;;;;;;;32.08;16.75;;;;;;;0.73;100.00;99965.75;1755422;80;21058;-81
2022/01/14 06:10:14;;;;;;;36.90;18.35;;;;;;;0.78;100.00;99966.55;1754209;80;21015;-81
2022/01/14 06:12:41;;;;;;;34.10;16.65;;;;;;;0.79;100.00;99955.53;1757015;80;21523;-80
2022/01/14 06:15:09;;;;;;;36.40;17.40;;;;;;;0.81;100.00;99948.75;1757549;80;21042;-83
2022/01/14 06:17:37;;;;;;;36.03;16.40;;;;;;;0.85;100.00;99945.76;1748001;80;21011;-76
2022/01/14 06:20:05;;;;;;;30.88;16.23;;;;;;;0.86;100.00;99936.05;1757059;80;21553;-84
2022/01/14 06:22:37;;;;;;;33.20;16.93;;;;;;;0.88;100.00;99929.27;1765311;80;21058;-80
2022/01/14 06:25:05;;;;;;;34.33;16.95;;;;;;;0.87;100.00;99922.06;1747384;80;21054;-75
2022/01/14 06:27:34;;;;;;;31.52;16.15;;;;;;;0.88;100.00;99914.89;1769052;80;21642;-80
2022/01/14 06:30:04;;;;;;;30.00;14.93;;;;;;;0.97;100.00;99909.70;1759116;80;21039;-79
2022/01/14 06:32:35;;;;;;;28.35;15.30;;;;;;;0.98;100.00;99905.03;1769838;80;21059;-75
2022/01/14 06:35:03;;;;;;;30.57;15.95;;;;;;;1.05;100.00;99902.41;1759097;80;21042;-76
2022/01/14 06:37:30;;;;;;;28.65;15.60;;;;;;;1.06;100.00;99905.36;1762329;80;21542;-73
2022/01/14 06:39:57;;;;;;;28.47;15.28;;;;;;;1.07;100.00;99901.51;1764815;80;21053;-72
2022/01/14 06:42:24;;;;;;;27.75;14.40;;;;;;;1.10;100.00;99889.25;1716677;80;21488;-71
2022/01/14 06:44:51;;;;;;;28.40;15.40;;;;;;;1.14;100.00;99893.41;1746127;81;21569;-73
2022/01/14 06:47:18;;;;;;;30.23;15.48;;;;;;;1.15;100.00;99889.99;1767281;80;21078;-70
2022/01/14 06:49:44;;;;;;;33.67;16.00;;;;;;;1.19;100.00;99883.58;1741396;80;21046;-72
2022/01/14 06:52:11;;;;;;;30.50;15.58;;;;;;;1.22;100.00;99889.45;1780701;80;21071;-73
2022/01/14 06:54:38;;;;;;;26.82;13.58;;;;;;;1.22;100.00;99876.78;1765523;80;22380;-72
2022/01/14 06:57:05;;;;;;;28.27;14.78;;;;;;;1.25;100.00;99871.23;1763143;80;20998;-71
2022/01/14 06:59:33;;;;;;;27.65;15.23;;;;;;;1.31;100.00;99856.36;1716767;83;21110;-70
2022/01/14 07:02:01;;;;;;;29.37;16.23;;;;;;;1.33;100.00;99850.84;1702313;83;21038;-71
2022/01/14 07:04:27;;;;;;;26.35;15.03;;;;;;;1.37;100.00;99843.14;1771078;80;21053;-70
2022/01/14 07:06:54;;;;;;;27.00;14.40;;;;;;;1.37;100.00;99832.17;1768522;80;20976;-71
2022/01/14 07:09:21;;;;;;;25.10;13.62;;;;;;;1.41;100.00;99821.11;1784288;80;20966;-73
2022/01/14 07:11:53;;;;;;;27.05;15.32;;;;;;;1.43;100.00;99816.02;1770038;80;20998;-71
2022/01/14 07:14:17;;;;;;;28.02;14.60;;;;;;;1.46;100.00;99802.86;1739559;80;21550;-71
2022/01/14 07:16:44;;;;;;;26.30;13.68;;;;;;;1.52;100.00;99800.62;1771600;80;21023;-69
2022/01/14 07:19:12;;;;;;;26.05;13.68;;;;;;;1.49;100.00;99805.33;1775488;80;21003;-70
2022/01/14 07:21:40;;;;;;;26.62;14.23;;;;;;;1.48;100.00;99801.13;1771612;80;21082;-72
2022/01/14 07:24:07;;;;;;;24.77;14.07;;;;;;;1.50;100.00;99802.34;1759653;80;21020;-70
2022/01/14 07:26:34;;;;;;;26.77;13.62;;;;;;;1.53;100.00;99800.59;1767020;80;21074;-71
2022/01/14 07:29:01;;;;;;;26.33;14.38;;;;;;;1.57;100.00;99792.06;1770195;80;21018;-70
2022/01/14 07:31:28;;;;;;;24.07;13.55;;;;;;;1.57;100.00;99792.06;1707998;83;21000;-71
2022/01/14 07:33:55;;;;;;;23.18;14.07;;;;;;;1.63;100.00;99798.73;1697418;83;21024;-70
2022/01/14 07:36:23;;;;;;;24.60;13.40;;;;;;;1.66;100.00;99791.48;1726041;81;21066;-69
2022/01/14 07:38:50;;;;;;;23.35;12.73;;;;;;;1.70;100.00;99783.78;1768470;80;21050;-69
2022/01/14 07:41:17;;;;;;;23.77;12.30;;;;;;;1.81;100.00;99782.32;1763991;80;21003;-69
2022/01/14 07:43:48;;;;;;;19.40;11.28;;;;;;;1.85;100.00;99775.48;1764935;80;21011;-71
2022/01/14 07:46:13;;;;;;;19.55;11.97;;;;;;;1.87;100.00;99768.23;1755071;80;20979;-69
2022/01/14 07:48:41;;;;;;;19.17;11.68;;;;;;;1.92;100.00;99770.67;1733184;80;21519;-68
2022/01/14 07:51:09;;;;;;;20.15;11.45;;;;;;;2.04;100.00;99767.05;1693754;83;21098;-68
2022/01/14 07:53:37;;;;;;;19.23;10.80;;;;;;;2.12;100.00;99771.09;1688669;84;21016;-69
2022/01/14 07:56:06;;;;;;;18.27;11.12;;;;;;;2.19;100.00;99758.68;1683285;84;21121;-69
2022/01/14 07:58:34;;;;;;;17.48;10.65;;;;;;;2.28;100.00;99752.55;1699083;82;21511;-69
2022/01/14 08:01:00;;;;;;;18.48;11.18;;;;;;;2.34;100.00;99751.59;1717736;82;21076;-68
2022/01/14 08:03:27;;;;;;;19.95;11.30;;;;;;;2.34;100.00;99751.59;1688898;83;21107;-70
2022/01/14 08:05:57;;;;;;;17.60;10.58;;;;;;;2.37;100.00;99747.69;1699774;82;21078;-69
2022/01/14 08:08:24;;;;;;;16.17;10.03;;;;;;;2.45;100.00;99747.52;1694196;83;21100;-69
2022/01/14 08:10:51;;;;;;;14.03;8.65;;;;;;;2.40;100.00;99720.97;1711213;83;21063;-69
2022/01/14 08:13:19;;;;;;;16.55;9.73;;;;;;;2.40;100.00;99720.97;1744873;82;21003;-69
2022/01/14 08:15:47;;;;;;;15.10;8.98;;;;;;;2.50;100.00;99717.34;1699521;82;21594;-69
2022/01/14 08:18:14;;;;;;;14.23;8.88;;;;;;;2.50;100.00;99703.81;1704073;83;21123;-70
2022/01/14 08:20:42;;;;;;;16.30;9.18;;;;;;;2.60;100.00;99698.91;1714375;80;21230;-69
2022/01/14 08:23:08;;;;;;;14.38;8.75;;;;;;;2.60;100.00;99698.91;1694382;82;20992;-68
2022/01/14 08:25:36;;;;;;;12.68;7.58;;;;;;;2.66;100.00;99696.66;1724165;81;21028;-69
2022/01/14 08:28:03;;;;;;;13.60;8.68;;;;;;;2.68;100.00;99687.30;1745985;81;21141;-69
2022/01/14 08:30:32;;;;;;;13.85;8.60;;;;;;;2.63;100.00;99696.72;1743288;81;21026;-70
2022/01/14 08:32:59;;;;;;;13.88;8.20;;;;;;;2.60;100.00;99693.83;1761134;80;21010;-69
2022/01/14 08:35:27;;;;;;;13.72;8.40;;;;;;;2.54;100.00;99687.18;1750460;80;21042;-69
2022/01/14 08:37:53;;;;;;;14.28;8.83;;;;;;;2.52;100.00;99682.57;1751726;79;21121;-69
2022/01/14 08:40:20;;;;;;;13.40;8.28;;;;;;;2.55;100.00;99675.30;1752040;80;21014;-69
2022/01/14 08:42:53;;;;;;;13.00;7.97;;;;;;;2.60;100.00;99670.95;1755523;80;21058;-70
2022/01/14 08:45:18;;;;;;;11.97;7.58;;;;;;;2.61;100.00;99667.09;1744472;81;21593;-69
2022/01/14 08:47:45;;;;;;;10.68;7.37;;;;;;;2.59;100.00;99667.56;1695605;83;21004;-69
2022/01/14 08:50:12;;;;;;;13.35;8.03;;;;;;;2.67;100.00;99668.64;1723657;81;21562;-69
2022/01/14 08:52:38;;;;;;;13.30;8.53;;;;;;;2.71;100.00;99656.70;1700831;83;21075;-70
2022/01/14 08:55:06;;;;;;;12.33;7.70;;;;;;;2.71;100.00;99650.35;1690170;85;21056;-70
2022/01/14 08:57:33;;;;;;;12.58;7.40;;;;;;;2.64;100.00;99645.88;1690005;84;22060;-69
2022/01/14 09:00:00;;;;;;;13.40;8.35;;;;;;;2.63;100.00;99641.64;1690007;84;21091;-70
2022/01/14 09:02:28;;;;;;;14.53;8.13;;;;;;;2.66;100.00;99640.75;1689980;84;21072;-71
2022/01/14 09:04:55;;;;;;;15.18;8.88;;;;;;;2.68;100.00;99626.30;1689576;85;21032;-71
2022/01/14 09:07:22;;;;;;;15.20;8.63;;;;;;;2.65;100.00;99621.28;1689931;85;21013;-70
2022/01/14 09:09:49;;;;;;;12.58;7.80;;;;;;;2.68;100.00;99627.58;1690194;85;21508;-70
2022/01/14 09:12:17;;;;;;;13.00;8.08;;;;;;;2.68;100.00;99616.14;1689877;84;21115;-70
2022/01/14 09:14:44;;;;;;;11.85;8.20;;;;;;;2.68;100.00;99598.35;1690203;85;21071;-72
2022/01/14 09:17:13;;;;;;;14.40;8.45;;;;;;;2.71;100.00;99587.65;1690087;84;21060;-70
2022/01/14 09:19:40;;;;;;;11.03;7.08;;;;;;;2.76;100.00;99588.81;1690102;85;20987;-73
2022/01/14 09:22:08;;;;;;;9.63;7.15;;;;;;;2.80;100.00;99575.16;1689571;84;21052;-73
2022/01/14 09:24:36;;;;;;;12.82;8.23;;;;;;;2.88;100.00;99570.69;1690214;85;21091;-73
2022/01/14 09:27:03;;;;;;;16.32;8.93;;;;;;;2.98;100.00;99572.09;1690047;84;21634;-73
2022/01/14 09:29:30;;;;;;;12.00;7.55;;;;;;;3.08;100.00;99564.20;1689947;84;21244;-74
2022/01/14 09:31:57;;;;;;;12.03;7.95;;;;;;;3.11;100.00;99557.77;1690018;84;21139;-74
2022/01/14 09:34:24;;;;;;;12.35;8.10;;;;;;;3.12;100.00;99547.56;1707855;83;21062;-74
2022/01/14 09:36:51;;;;;;;11.85;7.85;;;;;;;3.13;100.00;99534.40;1712147;82;21619;-74
2022/01/14 09:39:20;;;;;;;11.50;7.87;;;;;;;3.20;100.00;99525.70;1745092;81;21077;-72
2022/01/14 09:41:47;;;;;;;11.97;7.12;;;;;;;3.30;100.00;99524.98;1746466;81;21074;-72
2022/01/14 09:44:18;;;;;;;12.88;7.85;;;;;;;3.24;100.00;99505.65;1700106;83;21066;-73
2022/01/14 09:46:51;;;;;;;10.95;7.45;;;;;;;3.26;100.00;99497.53;1754216;80;21482;-74
2022/01/14 09:49:19;;;;;;;12.82;7.50;;;;;;;3.11;100.00;99487.84;1751768;80;21142;-77
2022/01/14 09:51:46;;;;;;;11.50;7.92;;;;;;;3.11;100.00;99486.12;1755735;80;21570;-72
2022/01/14 09:54:14;;;;;;;10.00;7.03;;;;;;;3.11;100.00;99479.77;1747179;82;21042;-74
2022/01/14 09:56:41;;;;;;;11.25;7.50;;;;;;;3.06;100.00;99478.23;1745009;82;22192;-72
2022/01/14 09:59:08;;;;;;;10.93;7.33;;;;;;;3.09;100.00;99466.27;1681334;84;21013;-71
2022/01/14 10:01:43;;;;;;;12.05;7.60;;;;;;;3.09;100.00;99464.17;1694021;83;21099;-72
2022/01/14 10:04:19;;;;;;;11.38;7.78;;;;;;;3.08;100.00;99457.41;1757471;80;21070;-73
2022/01/14 10:06:54;;;;;;;13.45;7.62;;;;;;;3.10;100.00;99460.31;1748431;80;21561;-72
2022/01/14 10:09:35;;;;;;;10.63;7.08;;;;;;;3.06;100.00;99446.00;1748110;80;21062;-72
2022/01/14 10:12:14;;;;;;;12.70;8.10;;;;;;;3.05;100.00;99434.19;1755101;80;21011;-77
2022/01/14 10:14:58;;;;;;;11.97;8.38;;;;;;;3.08;100.00;99434.11;1740216;81;21034;-71
2022/01/14 10:17:37;;;;;;;11.93;7.50;;;;;;;3.13;100.00;99427.59;1769864;80;20984;-72
2022/01/14 10:20:08;;;;;;;12.82;8.55;;;;;;;3.17;100.00;99421.09;1769619;80;20984;-74
2022/01/14 10:22:44;;;;;;;11.85;7.37;;;;;;;3.12;100.00;99420.83;1744873;80;21014;-74
2022/01/14 10:25:15;;;;;;;12.40;8.08;;;;;;;3.11;100.00;99419.19;1756071;80;21057;-71
2022/01/14 10:27:49;;;;;;;12.93;7.90;;;;;;;3.13;100.00;99419.52;1747470;81;21542;-71
2022/01/14 10:30:20;;;;;;;12.82;8.80;;;;;;;3.07;100.00;99408.72;1744678;82;20995;-75
2022/01/14 10:33:05;;;;;;;10.98;7.33;;;;;;;3.10;100.00;99405.65;1681171;83;21059;-74
2022/01/14 10:35:46;;;;;;;12.90;8.13;;;;;;;3.09;100.00;99392.53;1742845;82;21113;-74
2022/01/14 10:38:16;;;;;;;13.78;8.70;;;;;;;3.15;100.00;99373.27;1746432;82;21039;-73
2022/01/14 10:40:50;;;;;;;12.50;8.50;;;;;;;3.25;100.00;99359.82;1733489;82;21153;-77
2022/01/14 10:43:21;;;;;;;;;;;;;;;3.20;100.00;99354.89;1718291;82;21062;-75
2022/01/14 10:45:51;;;;;;;12.43;8.33;;;;;;;3.26;100.00;99342.84;1744132;81;20133;-73
2022/01/14 10:48:32;;;;;;;13.00;8.53;;;;;;;3.28;100.00;99343.63;1742902;81;21062;-76
2022/01/14 10:51:03;;;;;;;12.78;8.25;;;;;;;3.25;100.00;99329.75;1745231;82;21031;-72
2022/01/14 10:53:44;;;;;;;12.93;8.63;;;;;;;3.19;100.00;99332.87;1745298;82;21527;-72
2022/01/14 10:56:15;;;;;;;13.75;7.97;;;;;;;3.15;100.00;99330.48;1728599;82;21052;-73
2022/01/14 10:58:47;;;;;;;11.70;8.25;;;;;;;3.07;100.00;99321.83;1718708;82;21500;-74
2022/01/14 11:01:21;;;;;;;14.07;9.30;;;;;;;3.03;100.00;99325.80;1770291;80;21062;-74
2022/01/14 11:04:01;;;;;;;11.27;7.57;;;;;;;2.99;100.00;99309.80;1759473;80;21035;-73
2022/01/14 11:06:32;;;;;;;11.00;7.42;;;;;;;2.88;100.00;99306.77;1764934;80;21093;-76
2022/01/14 11:09:14;;;;;;;12.40;8.00;;;;;;;2.85;100.00;99303.06;1741406;81;21086;-74
2022/01/14 11:11:45;;;;;;;10.45;7.20;;;;;;;2.83;100.00;99282.77;1739352;82;21496;-77
2022/01/14 11:14:13;;;;;;;12.93;8.08;;;;;;;2.80;100.00;99271.00;1735148;82;21018;-75
2022/01/14 11:16:41;;;;;;;10.88;7.22;;;;;;;2.82;100.00;99253.17;1694443;83;21054;-75
2022/01/14 11:19:09;;;;;;;11.30;7.78;;;;;;;2.80;100.00;99252.39;1742794;80;20983;-74
2022/01/14 11:24:30;;;;;;;12.00;7.37;;;;;;;2.85;100.00;99235.72;1759417;80;21027;-73
2022/01/14 11:27:06;;;;;;;12.90;8.13;;;;;;;2.83;100.00;99226.86;1763429;81;21544;-75
2022/01/14 11:29:37;;;;;;;10.48;7.45;;;;;;;2.81;100.00;99218.45;1752820;80;21019;-73
2022/01/14 11:32:05;;;;;;;11.48;7.78;;;;;;;2.83;100.00;99209.07;1762813;80;21012;-76
2022/01/14 11:34:42;;;;;;;10.40;6.78;;;;;;;2.87;100.00;99198.38;1776603;80;21106;-75
2022/01/14 11:37:13;;;;;;;13.95;8.10;;;;;;;2.85;100.00;99192.06;1722682;81;21145;-77
2022/01/14 11:39:59;;;;;;;14.58;7.53;;;;;;;2.87;100.00;99189.47;1744622;81;21027;-76
2022/01/14 11:42:48;;;;;;;10.45;6.50;;;;;;;2.85;100.00;99186.98;1743094;82;21546;-74
2022/01/14 11:45:18;;;;;;;11.33;7.67;;;;;;;2.84;100.00;99171.36;1746588;82;21084;-77
2022/01/14 11:47:49;;;;;;;13.05;7.65;;;;;;;2.84;100.00;99171.36;1741788;82;21565;-75
2022/01/14 11:50:27;;;;;;;12.23;7.55;;;;;;;2.85;100.00;99164.55;1746937;82;21023;-75